Time;durP1;ratioP1;P1;durP2;ratioP2;P2;SDS_P1;SDS_P2;PMS_P1;PMS_P2;Temp;Humidity;BMP_temperature;BMP_pressure;BME280_temperature;BME280_humidity;BME280_pressure;Samples;Min_cycle;Max_cycle;Signal;HPM_P1;HPM_P2
2022/09/20 00:00:42;;;;;;;12.60;2.83;;;10.60;99.90;;;;;;5053386;28;20528;-74
2022/09/20 00:03:09;;;;;;;10.13;2.83;;;10.50;99.90;;;;;;5052626;28;20473;-74
2022/09/20 00:05:38;;;;;;;10.67;3.17;;;10.50;99.90;;;;;;5052871;28;20460;-74
2022/09/20 00:08:08;;;;;;;7.60;3.27;;;10.50;99.90;;;;;;5053630;28;20455;-74
2022/09/20 00:10:38;;;;;;;11.33;2.87;;;10.50;99.90;;;;;;5052495;28;20447;-74
2022/09/20 00:13:06;;;;;;;9.20;3.33;;;10.50;99.90;;;;;;5053397;28;20459;-74
2022/09/20 00:15:33;;;;;;;10.23;3.30;;;10.40;99.90;;;;;;5053227;28;20507;-74
2022/09/20 00:18:00;;;;;;;8.23;3.37;;;10.40;99.90;;;;;;5053023;28;20517;-74
2022/09/20 00:20:27;;;;;;;6.67;3.43;;;10.40;99.90;;;;;;5052361;28;20466;-74
2022/09/20 00:22:54;;;;;;;8.83;3.37;;;10.30;99.90;;;;;;5051009;28;20480;-74
2022/09/20 00:25:22;;;;;;;7.10;3.80;;;10.30;99.90;;;;;;5052348;28;20966;-74
2022/09/20 00:27:49;;;;;;;10.53;3.53;;;10.20;99.90;;;;;;5052314;28;20532;-74
2022/09/20 00:30:15;;;;;;;12.40;3.90;;;10.20;99.90;;;;;;5052499;28;20460;-74
2022/09/20 00:32:42;;;;;;;6.33;3.70;;;10.20;99.90;;;;;;5046353;28;20452;-74
2022/09/20 00:35:09;;;;;;;11.70;3.90;;;10.20;99.90;;;;;;5052187;28;20475;-74
2022/09/20 00:37:38;;;;;;;13.27;4.53;;;10.10;99.90;;;;;;5051567;28;20457;-74
2022/09/20 00:40:07;;;;;;;8.37;3.23;;;10.10;99.90;;;;;;5051770;28;20519;-74
2022/09/20 00:42:36;;;;;;;8.30;3.33;;;10.10;99.90;;;;;;5052448;28;20502;-74
2022/09/20 00:45:05;;;;;;;9.00;3.50;;;10.00;99.90;;;;;;5052115;28;20474;-74
2022/09/20 00:47:40;;;;;;;6.13;3.47;;;10.00;99.90;;;;;;5052194;28;20478;-74
2022/09/20 00:50:24;;;;;;;13.40;4.27;;;10.00;99.90;;;;;;5051614;28;20456;-74
2022/09/20 00:52:56;;;;;;;14.37;4.13;;;10.00;99.90;;;;;;5049641;28;20463;-74
2022/09/20 00:55:23;;;;;;;10.03;4.10;;;10.00;99.90;;;;;;5051962;28;20468;-74
2022/09/20 00:57:52;;;;;;;6.30;3.40;;;10.00;99.90;;;;;;5052282;28;20460;-74
2022/09/20 01:00:19;;;;;;;13.53;3.70;;;10.00;99.90;;;;;;5051710;28;20488;-74
2022/09/20 01:02:48;;;;;;;9.13;3.87;;;10.00;99.90;;;;;;5052130;28;20453;-74
2022/09/20 01:05:17;;;;;;;13.37;4.23;;;10.00;99.90;;;;;;5052050;28;20980;-74
2022/09/20 01:07:46;;;;;;;7.13;3.10;;;10.00;99.90;;;;;;5052141;28;20458;-74
2022/09/20 01:10:13;;;;;;;13.87;3.83;;;10.00;99.90;;;;;;5051142;28;20450;-74
2022/09/20 01:12:40;;;;;;;8.93;3.70;;;10.00;99.90;;;;;;5051609;28;20445;-74
2022/09/20 01:15:10;;;;;;;9.87;3.93;;;10.00;99.90;;;;;;5051902;28;20498;-74
2022/09/20 01:17:41;;;;;;;6.87;3.63;;;10.00;99.90;;;;;;5052385;28;20445;-74
2022/09/20 01:20:13;;;;;;;10.00;4.27;;;10.00;99.90;;;;;;5051500;28;20484;-74
2022/09/20 01:22:52;;;;;;;10.70;4.40;;;10.00;99.90;;;;;;5050790;28;20499;-74
2022/09/20 01:25:36;;;;;;;8.80;4.20;;;9.90;99.90;;;;;;5050696;28;20453;-74
2022/09/20 01:28:04;;;;;;;22.27;4.63;;;9.90;99.90;;;;;;5047172;28;20456;-74
2022/09/20 01:30:38;;;;;;;10.90;4.60;;;9.90;99.90;;;;;;5051488;28;20445;-74
2022/09/20 01:33:11;;;;;;;14.53;4.70;;;9.90;99.90;;;;;;5051307;28;20452;-74
2022/09/20 01:35:41;;;;;;;8.73;3.80;;;9.90;99.90;;;;;;5050639;28;20452;-74
2022/09/20 01:38:27;;;;;;;15.63;4.87;;;9.80;99.90;;;;;;5050793;28;20867;-74
2022/09/20 01:41:02;;;;;;;8.37;4.70;;;9.80;99.90;;;;;;5047394;28;20451;-74
2022/09/20 01:43:36;;;;;;;9.10;3.83;;;9.80;99.90;;;;;;5051302;28;20987;-74
2022/09/20 01:46:10;;;;;;;13.30;3.73;;;9.80;99.90;;;;;;5051441;28;20464;-74
2022/09/20 01:48:39;;;;;;;9.63;4.30;;;9.80;99.90;;;;;;5051159;28;20443;-74
2022/09/20 01:51:42;;;;;;;9.00;3.60;;;9.80;99.90;;;;;;5050960;28;20498;-74
2022/09/20 01:54:39;;;;;;;12.80;4.13;;;9.70;99.90;;;;;;5047885;28;20468;-74
2022/09/20 01:57:36;;;;;;;13.77;4.30;;;9.70;99.90;;;;;;5047820;28;20456;-74
2022/09/20 02:00:12;;;;;;;11.40;4.53;;;9.60;99.90;;;;;;5050045;28;20490;-74
2022/09/20 02:03:11;;;;;;;9.67;4.00;;;9.50;99.90;;;;;;5050710;28;20504;-74
2022/09/20 02:05:50;;;;;;;14.03;5.00;;;9.40;99.90;;;;;;5050928;28;20558;-74
2022/09/20 02:08:42;;;;;;;11.70;4.60;;;9.40;99.90;;;;;;5050791;28;20538;-74
2022/09/20 02:11:13;;;;;;;15.77;4.50;;;9.40;99.90;;;;;;5049413;28;20456;-74
2022/09/20 02:14:13;;;;;;;9.37;5.07;;;9.30;99.90;;;;;;5051178;28;20555;-74
2022/09/20 02:16:53;;;;;;;10.30;4.27;;;9.20;99.90;;;;;;5051274;28;20758;-74
2022/09/20 02:19:49;;;;;;;8.80;4.93;;;9.20;99.90;;;;;;5049959;28;20604;-74
2022/09/20 02:22:29;;;;;;;6.73;3.97;;;9.10;99.90;;;;;;5047922;28;20456;-74
2022/09/20 02:25:08;;;;;;;8.47;4.40;;;9.00;99.90;;;;;;5049037;28;20464;-74
2022/09/20 02:27:45;;;;;;;11.10;5.00;;;9.00;99.90;;;;;;5050381;28;20458;-74
2022/09/20 02:30:22;;;;;;;13.20;4.73;;;9.00;99.90;;;;;;5049376;28;20447;-74
2022/09/20 02:33:10;;;;;;;16.30;4.63;;;8.90;99.90;;;;;;5044141;28;20960;-74
2022/09/20 02:35:45;;;;;;;10.20;4.30;;;8.90;99.90;;;;;;5049901;28;20452;-74
2022/09/20 02:41:53;;;;;;;12.23;4.43;;;8.80;99.90;;;;;;5050041;28;22096;-74
2022/09/20 02:44:29;;;;;;;7.50;4.60;;;8.80;99.90;;;;;;5050472;28;20483;-74
2022/09/20 02:47:02;;;;;;;13.23;5.37;;;8.80;99.90;;;;;;5048155;28;20495;-74
2022/09/20 02:49:39;;;;;;;14.07;4.57;;;8.80;99.90;;;;;;5054022;28;20437;-74
2022/09/20 02:52:15;;;;;;;5.10;3.57;;;8.70;99.90;;;;;;5054832;28;20510;-74
2022/09/20 02:54:50;;;;;;;15.33;4.50;;;8.70;99.90;;;;;;5054071;28;20474;-74
2022/09/20 02:57:25;;;;;;;8.60;4.50;;;8.70;99.90;;;;;;5055057;28;20451;-74
2022/09/20 02:59:57;;;;;;;17.10;4.83;;;8.70;99.90;;;;;;5054174;28;20511;-74
2022/09/20 03:02:30;;;;;;;18.07;4.80;;;8.60;99.90;;;;;;5055125;28;20514;-74
2022/09/20 03:05:15;;;;;;;14.07;5.70;;;8.60;99.90;;;;;;5050496;28;20487;-74
2022/09/20 03:07:54;;;;;;;12.23;5.23;;;8.60;99.90;;;;;;5055065;28;20453;-74
2022/09/20 03:10:28;;;;;;;7.53;4.43;;;8.60;99.90;;;;;;5054773;28;20463;-74
2022/09/20 03:13:10;;;;;;;8.17;4.90;;;8.50;99.90;;;;;;5056137;28;20459;-74
2022/09/20 03:15:48;;;;;;;9.17;4.33;;;8.50;99.90;;;;;;5054929;28;21017;-74
2022/09/20 03:18:17;;;;;;;11.60;5.37;;;8.50;99.90;;;;;;5054063;28;20469;-73
2022/09/20 03:21:00;;;;;;;14.07;4.73;;;8.40;99.90;;;;;;5054193;28;20488;-74
2022/09/20 03:23:46;;;;;;;14.73;4.70;;;8.40;99.90;;;;;;5054061;28;20471;-74
2022/09/20 03:26:25;;;;;;;13.80;4.63;;;8.50;99.90;;;;;;5049848;28;20516;-73
2022/09/20 03:29:02;;;;;;;21.07;5.00;;;8.50;99.90;;;;;;5053103;28;20457;-74
2022/09/20 03:31:56;;;;;;;13.10;4.70;;;8.40;99.90;;;;;;5053214;28;20451;-74
2022/09/20 03:34:38;;;;;;;16.33;4.97;;;8.40;99.90;;;;;;5053168;28;21022;-74
2022/09/20 03:37:20;;;;;;;6.53;4.07;;;8.40;99.90;;;;;;5048693;28;20467;-74
2022/09/20 03:40:18;;;;;;;12.00;4.60;;;8.40;99.90;;;;;;5052843;28;20531;-74
2022/09/20 03:42:48;;;;;;;21.17;5.70;;;8.40;99.90;;;;;;5032930;28;20447;-74
2022/09/20 03:45:29;;;;;;;14.03;6.40;;;8.30;99.90;;;;;;5054143;28;20453;-74
2022/09/20 03:48:17;;;;;;;17.63;6.80;;;8.20;99.90;;;;;;5047904;28;20459;-73
2022/09/20 03:50:51;;;;;;;14.50;5.90;;;8.10;99.90;;;;;;5053660;28;20438;-74
2022/09/20 03:53:46;;;;;;;12.70;6.20;;;8.00;99.90;;;;;;5054020;28;20480;-74
2022/09/20 03:56:35;;;;;;;13.97;5.70;;;8.00;99.90;;;;;;5048653;28;20458;-74
2022/09/20 03:59:17;;;;;;;13.43;5.50;;;7.90;99.90;;;;;;5051497;28;20463;-74
2022/09/20 04:02:06;;;;;;;22.00;6.20;;;7.90;99.90;;;;;;5052956;28;20511;-74
2022/09/20 04:04:41;;;;;;;10.37;6.17;;;7.90;99.90;;;;;;5052925;28;20487;-74
2022/09/20 04:07:19;;;;;;;12.80;6.43;;;7.90;99.90;;;;;;5052503;28;20459;-74
2022/09/20 04:10:12;;;;;;;15.10;5.70;;;8.00;99.90;;;;;;5052041;28;20455;-74
2022/09/20 04:12:49;;;;;;;12.80;5.17;;;8.00;99.90;;;;;;5052021;28;20925;-74
2022/09/20 04:15:35;;;;;;;12.63;5.30;;;8.00;99.90;;;;;;5052169;28;20459;-74
2022/09/20 04:18:09;;;;;;;9.73;5.43;;;8.10;99.90;;;;;;5048665;28;21011;-74
2022/09/20 04:20:45;;;;;;;15.30;5.30;;;8.10;99.90;;;;;;5052721;28;20926;-74
2022/09/20 04:23:21;;;;;;;12.77;5.67;;;8.20;99.90;;;;;;5053389;28;20480;-74
2022/09/20 04:25:51;;;;;;;14.03;5.20;;;8.10;99.90;;;;;;5051754;28;20460;-74
2022/09/20 04:28:24;;;;;;;10.83;5.03;;;8.10;99.90;;;;;;5052956;28;20515;-74
2022/09/20 04:30:55;;;;;;;12.40;4.50;;;8.10;99.90;;;;;;5052214;28;20986;-74
2022/09/20 04:33:28;;;;;;;13.87;5.30;;;8.10;99.90;;;;;;5053381;28;20477;-74
2022/09/20 04:38:56;;;;;;;13.93;4.97;;;8.10;99.90;;;;;;5053014;28;20455;-74
2022/09/20 04:42:12;;;;;;;8.87;4.83;;;8.10;99.90;;;;;;5052971;28;20474;-74
2022/09/20 04:45:01;;;;;;;12.87;5.90;;;8.10;99.90;;;;;;5043131;28;20476;-74
2022/09/20 04:47:56;;;;;;;23.63;6.00;;;8.10;99.90;;;;;;5052072;28;20457;-74
2022/09/20 04:50:55;;;;;;;17.50;5.70;;;8.10;99.90;;;;;;5049874;28;20445;-74
2022/09/20 04:53:46;;;;;;;9.27;5.00;;;8.10;99.90;;;;;;5044465;28;20478;-74
2022/09/20 04:56:38;;;;;;;11.60;4.80;;;8.10;99.90;;;;;;5047757;28;20540;-74
2022/09/20 04:59:18;;;;;;;11.13;5.60;;;8.00;99.90;;;;;;5046778;28;20457;-74
2022/09/20 05:02:14;;;;;;;22.60;6.07;;;8.00;99.90;;;;;;5051898;28;20916;-74
2022/09/20 05:05:16;;;;;;;22.90;7.47;;;8.00;99.90;;;;;;5051711;28;20478;-74
2022/09/20 05:08:35;;;;;;;26.13;8.27;;;8.10;99.90;;;;;;5051746;28;21168;-74
2022/09/20 05:11:29;;;;;;;27.40;13.60;;;8.10;99.90;;;;;;5046286;28;20926;-74
2022/09/20 05:14:23;;;;;;;14.80;8.00;;;8.10;99.90;;;;;;5051410;28;20465;-73
2022/09/20 05:17:15;;;;;;;35.33;9.00;;;8.10;99.90;;;;;;5051648;28;20456;-74
2022/09/20 05:19:54;;;;;;;22.67;6.90;;;8.10;99.90;;;;;;5052021;28;20453;-74
2022/09/20 05:22:50;;;;;;;20.53;6.57;;;8.10;99.90;;;;;;5051964;28;20453;-74
2022/09/20 05:25:47;;;;;;;21.07;6.47;;;8.10;99.90;;;;;;5047675;28;20863;-74
2022/09/20 05:28:21;;;;;;;25.83;6.40;;;8.10;99.90;;;;;;5047335;28;21023;-74
2022/09/20 05:30:53;;;;;;;18.00;6.53;;;8.10;99.90;;;;;;5051441;28;20485;-74
2022/09/20 05:33:26;;;;;;;13.93;7.63;;;8.20;99.90;;;;;;5051118;28;20485;-74
2022/09/20 05:36:03;;;;;;;18.30;7.70;;;8.20;99.90;;;;;;5051448;28;20460;-74
2022/09/20 05:38:40;;;;;;;30.27;12.63;;;8.30;99.90;;;;;;5051598;28;20485;-74
2022/09/20 05:41:14;;;;;;;21.70;10.73;;;8.30;99.90;;;;;;5045963;28;20571;-74
2022/09/20 05:43:52;;;;;;;37.53;17.17;;;8.30;99.90;;;;;;5051085;28;20475;-74
2022/09/20 05:46:33;;;;;;;25.50;10.70;;;8.30;99.90;;;;;;5050801;28;20534;-74
2022/09/20 05:49:10;;;;;;;19.33;8.97;;;8.30;99.90;;;;;;5051019;28;20534;-74
2022/09/20 05:51:54;;;;;;;20.00;7.70;;;8.30;99.90;;;;;;5051193;28;20467;-74
2022/09/20 05:54:43;;;;;;;21.30;9.97;;;8.40;99.90;;;;;;5047440;28;20841;-74
2022/09/20 05:57:19;;;;;;;18.00;8.70;;;8.50;99.90;;;;;;5047825;28;20539;-74
2022/09/20 05:59:58;;;;;;;19.50;7.90;;;8.70;99.90;;;;;;5047423;28;20467;-73
2022/09/20 06:02:35;;;;;;;27.20;8.70;;;8.90;99.90;;;;;;5046909;28;20958;-73
2022/09/20 06:05:09;;;;;;;24.63;9.73;;;8.90;99.90;;;;;;5047135;28;20483;-73
2022/09/20 06:07:53;;;;;;;17.47;8.00;;;9.10;99.90;;;;;;5046788;28;20540;-73
2022/09/20 06:10:51;;;;;;;10.97;6.57;;;9.20;99.90;;;;;;5046912;28;20502;-73
2022/09/20 06:13:33;;;;;;;10.60;7.00;;;9.40;99.90;;;;;;5046876;28;20490;-73
2022/09/20 06:16:03;;;;;;;13.77;8.00;;;9.60;99.90;;;;;;5047214;28;20454;-73
2022/09/20 06:18:36;;;;;;;18.17;7.60;;;9.80;99.90;;;;;;5047107;28;20449;-73
2022/09/20 06:21:16;;;;;;;21.63;8.00;;;9.90;99.90;;;;;;5046253;28;20479;-73
2022/09/20 06:23:43;;;;;;;28.87;9.40;;;10.00;99.90;;;;;;5047007;28;20495;-73
2022/09/20 06:26:16;;;;;;;18.73;8.60;;;10.40;99.90;;;;;;5047366;28;20453;-73
2022/09/20 06:28:47;;;;;;;31.27;14.03;;;11.10;99.90;;;;;;5046917;28;20485;-73
2022/09/20 06:31:15;;;;;;;98.18;38.70;;;11.90;99.90;;;;;;5046072;28;20446;-73
2022/09/20 06:33:46;;;;;;;29.37;9.87;;;12.50;99.90;;;;;;5046656;28;20225;-72
2022/09/20 06:41:59;;;;;;;21.33;9.20;;;12.40;99.90;;;;;;5046541;28;20537;-73
2022/09/20 06:44:26;;;;;;;15.90;7.70;;;12.60;99.90;;;;;;5047716;28;20476;-72
2022/09/20 06:46:53;;;;;;;18.30;6.47;;;12.70;99.90;;;;;;5046567;28;20468;-72
2022/09/20 06:49:21;;;;;;;10.80;6.13;;;12.90;99.90;;;;;;5047085;28;20493;-72
2022/09/20 06:51:49;;;;;;;12.27;6.30;;;13.10;99.90;;;;;;5046917;28;20514;-72
2022/09/20 06:54:19;;;;;;;8.97;4.97;;;13.40;99.90;;;;;;5047152;28;20506;-72
2022/09/20 06:56:47;;;;;;;10.60;5.50;;;14.00;99.90;;;;;;5046720;28;20460;-72
2022/09/20 06:59:14;;;;;;;25.63;5.73;;;14.60;99.90;;;;;;5047191;28;20952;-72
2022/09/20 07:01:41;;;;;;;12.63;5.63;;;14.90;99.90;;;;;;5046530;28;20568;-73
2022/09/20 07:04:09;;;;;;;9.10;4.70;;;15.00;99.90;;;;;;5047021;28;20471;-72
2022/09/20 07:06:37;;;;;;;13.30;5.07;;;15.10;99.90;;;;;;5046719;28;20495;-72
2022/09/20 07:09:04;;;;;;;23.70;5.50;;;14.90;99.90;;;;;;5046296;28;20508;-73
2022/09/20 07:11:33;;;;;;;9.40;4.07;;;14.70;99.90;;;;;;5046955;28;20457;-73
2022/09/20 07:14:01;;;;;;;12.00;4.80;;;14.80;99.90;;;;;;5047144;28;20594;-74
2022/09/20 07:16:28;;;;;;;8.30;3.87;;;14.90;99.90;;;;;;5046619;28;20449;-73
2022/09/20 07:18:55;;;;;;;11.30;3.50;;;15.00;99.90;;;;;;5046891;28;20981;-73
2022/09/20 07:21:22;;;;;;;9.83;4.47;;;15.30;99.90;;;;;;5047138;28;20482;-73
2022/09/20 07:23:52;;;;;;;9.07;4.00;;;15.40;99.90;;;;;;5046564;28;20480;-74
2022/09/20 07:26:21;;;;;;;8.13;4.00;;;15.40;99.90;;;;;;5047381;28;20467;-73
2022/09/20 07:28:49;;;;;;;15.93;4.70;;;15.40;99.90;;;;;;5047056;28;20455;-73
2022/09/20 07:31:16;;;;;;;7.10;3.00;;;15.40;99.90;;;;;;5046519;28;21020;-73
2022/09/20 07:33:43;;;;;;;11.73;3.87;;;15.30;99.90;;;;;;5049782;28;21030;-73
2022/09/20 07:36:11;;;;;;;12.53;3.73;;;15.20;99.90;;;;;;5050466;28;20503;-74
2022/09/20 07:38:38;;;;;;;8.57;3.53;;;15.00;99.90;;;;;;5050587;28;20452;-73
2022/09/20 07:41:06;;;;;;;6.83;3.50;;;15.00;99.90;;;;;;5050679;28;20492;-73
2022/09/20 07:43:33;;;;;;;8.90;3.03;;;15.20;99.90;;;;;;5050269;28;20838;-74
2022/09/20 07:46:00;;;;;;;6.20;3.20;;;15.20;99.90;;;;;;5050129;28;20452;-73
2022/09/20 07:48:30;;;;;;;9.03;3.00;;;15.10;99.90;;;;;;5050297;28;20456;-73
2022/09/20 07:50:58;;;;;;;11.98;3.30;;;15.20;99.90;;;;;;5048977;28;20449;-73
2022/09/20 07:53:25;;;;;;;9.10;3.20;;;15.20;99.90;;;;;;5049555;28;20526;-79
2022/09/20 07:55:59;;;;;;;7.37;3.30;;;15.00;99.90;;;;;;5046644;28;20461;-78
2022/09/20 07:58:28;;;;;;;7.90;3.20;;;14.70;99.90;;;;;;5049341;28;20449;-78
2022/09/20 08:00:55;;;;;;;7.67;3.10;;;14.60;99.90;;;;;;5048683;28;20477;-78
2022/09/20 08:03:23;;;;;;;6.60;2.97;;;14.40;99.90;;;;;;5049373;28;20488;-79
2022/09/20 08:05:50;;;;;;;11.03;4.00;;;14.30;99.90;;;;;;5049417;28;20457;-79
2022/09/20 08:08:17;;;;;;;10.93;3.60;;;14.30;99.90;;;;;;5049591;28;20460;-78
2022/09/20 08:10:44;;;;;;;8.47;3.67;;;14.20;99.90;;;;;;5049125;28;20452;-79
2022/09/20 08:13:12;;;;;;;6.40;3.43;;;14.10;99.90;;;;;;5049574;28;20498;-78
2022/09/20 08:15:40;;;;;;;11.90;3.40;;;14.00;99.90;;;;;;5049244;28;20452;-80
2022/09/20 08:18:08;;;;;;;8.27;2.93;;;14.00;99.90;;;;;;5049327;28;20880;-79
2022/09/20 08:20:36;;;;;;;8.87;3.90;;;14.00;99.90;;;;;;5049988;28;20478;-78
2022/09/20 08:23:03;;;;;;;9.53;3.53;;;13.90;99.90;;;;;;5048854;28;20567;-78
2022/09/20 08:25:30;;;;;;;8.43;3.97;;;13.80;99.90;;;;;;5049656;28;20454;-78
2022/09/20 08:27:56;;;;;;;15.57;4.20;;;13.80;99.90;;;;;;5048998;28;20453;-78
2022/09/20 08:30:23;;;;;;;19.50;3.87;;;13.80;99.90;;;;;;5048687;28;20496;-78
2022/09/20 08:32:54;;;;;;;14.13;3.50;;;13.80;99.90;;;;;;5050087;28;20536;-77
2022/09/20 08:35:24;;;;;;;10.13;2.90;;;13.80;99.90;;;;;;5049172;28;20497;-77
2022/09/20 08:37:53;;;;;;;8.57;3.37;;;13.80;99.90;;;;;;5048910;28;20481;-78
2022/09/20 08:40:22;;;;;;;13.90;3.70;;;13.80;99.90;;;;;;5047617;28;20549;-77
2022/09/20 08:42:49;;;;;;;10.40;3.37;;;13.90;99.90;;;;;;5046451;28;20524;-78
2022/09/20 08:45:20;;;;;;;7.47;3.20;;;13.90;99.90;;;;;;5047702;28;20553;-79
2022/09/20 08:47:49;;;;;;;10.83;3.57;;;14.00;99.90;;;;;;5049094;28;20536;-79
2022/09/20 08:50:18;;;;;;;8.93;3.87;;;14.00;99.90;;;;;;5049592;28;20455;-78
2022/09/20 08:52:47;;;;;;;8.90;3.70;;;14.10;99.90;;;;;;5048781;28;20829;-78
2022/09/20 08:55:17;;;;;;;9.60;3.30;;;14.20;99.90;;;;;;5048786;28;20462;-78
2022/09/20 08:57:45;;;;;;;15.00;3.33;;;14.20;99.90;;;;;;5049237;28;20457;-78
2022/09/20 09:00:17;;;;;;;4.83;2.70;;;14.30;99.90;;;;;;5048620;28;20486;-78
2022/09/20 09:02:44;;;;;;;11.00;3.37;;;14.40;99.90;;;;;;5048896;28;20470;-79
2022/09/20 09:05:31;;;;;;;3.67;2.53;;;14.40;99.90;;;;;;5048553;28;20477;-78
2022/09/20 09:07:59;;;;;;;8.87;2.93;;;14.50;99.90;;;;;;5048407;28;20461;-78
2022/09/20 09:10:28;;;;;;;8.37;3.70;;;14.50;99.90;;;;;;5049427;28;20457;-78
2022/09/20 09:12:56;;;;;;;6.77;3.13;;;14.40;99.90;;;;;;5048633;28;20445;-77
2022/09/20 09:15:28;;;;;;;11.87;3.50;;;14.50;99.90;;;;;;5047810;28;20453;-77
2022/09/20 09:17:55;;;;;;;8.63;3.17;;;14.50;99.90;;;;;;5048749;28;20828;-78
2022/09/20 09:20:23;;;;;;;7.50;2.77;;;14.60;99.90;;;;;;5047938;28;20520;-77
2022/09/20 09:23:00;;;;;;;5.33;2.60;;;14.60;99.90;;;;;;5048741;28;20473;-77
2022/09/20 09:25:31;;;;;;;13.80;3.27;;;14.70;99.90;;;;;;5048614;28;20510;-78
2022/09/20 09:28:00;;;;;;;8.13;2.80;;;14.70;99.90;;;;;;5048584;28;20472;-77
2022/09/20 09:30:29;;;;;;;9.70;2.57;;;14.80;99.90;;;;;;5048143;28;20449;-77
2022/09/20 09:33:18;;;;;;;12.07;3.27;;;15.00;99.90;;;;;;5048093;28;20464;-77
2022/09/20 09:35:52;;;;;;;10.40;2.60;;;15.00;99.90;;;;;;5047159;28;20488;-78
2022/09/20 09:38:23;;;;;;;9.73;3.60;;;15.10;99.90;;;;;;5038276;28;20449;-79
2022/09/20 09:40:52;;;;;;;11.20;3.37;;;15.20;99.90;;;;;;5038242;28;20968;-79
2022/09/20 09:43:25;;;;;;;13.10;2.90;;;15.30;99.90;;;;;;5045019;28;20472;-78
2022/09/20 09:45:53;;;;;;;8.20;2.70;;;15.40;99.90;;;;;;5043155;28;20499;-78
2022/09/20 09:48:23;;;;;;;8.20;2.87;;;15.50;99.90;;;;;;5036101;28;20460;-78
2022/09/20 09:50:51;;;;;;;5.63;2.70;;;15.60;99.90;;;;;;5045178;28;20457;-77
2022/09/20 09:53:23;;;;;;;7.27;3.03;;;15.80;99.90;;;;;;5053310;28;20485;-77
2022/09/20 09:56:05;;;;;;;3.77;2.53;;;16.00;99.90;;;;;;5053320;28;20541;-77
2022/09/20 09:58:45;;;;;;;6.40;2.60;;;16.00;99.90;;;;;;5055378;28;20827;-77
2022/09/20 10:01:32;;;;;;;7.43;2.50;;;16.10;99.90;;;;;;5051966;28;20834;-77
2022/09/20 10:04:08;;;;;;;10.43;3.13;;;16.20;99.90;;;;;;5049430;28;20501;-77
2022/09/20 10:06:40;;;;;;;11.20;3.63;;;16.10;99.90;;;;;;5048407;28;20448;-77
2022/09/20 10:09:21;;;;;;;5.97;2.20;;;16.10;99.90;;;;;;5050254;28;20449;-77
2022/09/20 10:12:11;;;;;;;6.17;2.40;;;16.30;99.90;;;;;;5050465;28;20424;-77
2022/09/20 10:14:53;;;;;;;9.37;2.50;;;16.50;99.90;;;;;;5052064;28;20541;-77
2022/09/20 10:17:33;;;;;;;5.83;3.03;;;16.50;99.90;;;;;;5047855;28;20449;-77
2022/09/20 10:20:14;;;;;;;6.50;2.80;;;16.50;99.90;;;;;;5049253;28;20457;-77
2022/09/20 10:22:50;;;;;;;6.40;2.77;;;16.60;99.90;;;;;;5047601;28;20492;-77
2022/09/20 10:25:29;;;;;;;6.70;2.83;;;16.90;99.90;;;;;;5045619;28;20496;-77
2022/09/20 10:28:07;;;;;;;13.13;2.57;;;16.90;99.90;;;;;;5049475;28;20452;-77
2022/09/20 10:30:44;;;;;;;9.83;2.50;;;16.90;99.90;;;;;;5047376;28;20457;-77
2022/09/20 10:33:24;;;;;;;10.73;2.80;;;16.70;99.90;;;;;;5048173;28;20465;-77
2022/09/20 10:36:05;;;;;;;10.80;2.30;;;16.70;99.90;;;;;;5050467;28;20510;-77
2022/09/20 10:38:36;;;;;;;7.00;2.73;;;16.60;99.90;;;;;;5049429;28;20460;-77
2022/09/20 10:44:11;;;;;;;8.90;2.13;;;16.40;99.90;;;;;;5047664;28;20648;-77
2022/09/20 10:46:51;;;;;;;6.90;2.37;;;16.40;99.90;;;;;;5047150;28;20456;-77
2022/09/20 10:49:27;;;;;;;6.67;2.40;;;16.50;99.90;;;;;;5047242;28;20956;-77
2022/09/20 10:52:05;;;;;;;7.47;2.20;;;16.50;99.90;;;;;;5047392;28;20499;-77
2022/09/20 10:54:45;;;;;;;4.53;1.83;;;16.60;99.90;;;;;;5047510;28;20534;-77
2022/09/20 10:57:27;;;;;;;8.90;2.13;;;17.10;99.90;;;;;;5046394;28;20449;-77
2022/09/20 11:00:03;;;;;;;4.50;1.73;;;17.90;99.90;;;;;;5047606;28;20837;-77
2022/09/20 11:02:45;;;;;;;8.70;2.17;;;18.60;99.90;;;;;;5046008;28;20596;-77
2022/09/20 11:05:29;;;;;;;6.17;1.70;;;19.20;99.90;;;;;;5047460;28;20454;-79
2022/09/20 11:08:08;;;;;;;5.03;1.60;;;19.60;99.90;;;;;;5049340;28;20816;-79
2022/09/20 11:10:41;;;;;;;2.80;1.60;;;19.30;99.90;;;;;;5050395;28;20431;-79
2022/09/20 11:13:20;;;;;;;7.17;1.93;;;19.00;99.90;;;;;;5050416;28;20852;-78
2022/09/20 11:15:54;;;;;;;6.27;2.30;;;18.60;99.90;;;;;;5047921;28;20431;-77
2022/09/20 11:18:25;;;;;;;5.93;1.90;;;18.40;99.90;;;;;;5049671;28;20448;-78
2022/09/20 11:21:01;;;;;;;8.50;2.20;;;18.10;99.90;;;;;;5049088;28;20458;-78
2022/09/20 11:23:39;;;;;;;3.63;1.70;;;17.70;99.90;;;;;;5049959;28;20474;-79
2022/09/20 11:26:11;;;;;;;8.00;2.13;;;17.50;99.90;;;;;;5051754;28;20427;-78
2022/09/20 11:28:45;;;;;;;7.77;2.07;;;17.40;99.90;;;;;;5051855;28;20427;-78
2022/09/20 11:31:18;;;;;;;7.03;2.20;;;17.30;99.90;;;;;;5050509;28;20461;-79
2022/09/20 11:33:51;;;;;;;3.70;2.03;;;17.20;99.90;;;;;;5051954;28;20432;-79
2022/09/20 11:36:23;;;;;;;12.93;1.90;;;17.10;99.90;;;;;;5052329;28;20432;-79
2022/09/20 11:38:54;;;;;;;4.27;2.20;;;17.00;99.90;;;;;;5052357;28;20416;-79
2022/09/20 11:41:26;;;;;;;9.93;2.00;;;17.00;99.90;;;;;;5051403;28;20441;-79
2022/09/20 11:43:55;;;;;;;8.43;3.17;;;17.10;99.90;;;;;;5051554;28;20439;-79
2022/09/20 11:46:25;;;;;;;11.90;2.63;;;17.40;99.90;;;;;;5050484;28;20465;-79
2022/09/20 11:48:56;;;;;;;3.20;1.43;;;18.00;99.90;;;;;;5052708;28;20419;-78
2022/09/20 11:51:48;;;;;;;7.67;1.60;;;18.70;99.90;;;;;;5051765;28;20647;-75
2022/09/20 11:54:35;;;;;;;3.33;1.20;;;19.60;99.90;;;;;;5051335;28;20444;-77
2022/09/20 11:57:02;;;;;;;2.13;1.10;;;20.40;99.90;;;;;;5049956;28;20536;-76
2022/09/20 11:59:35;;;;;;;3.73;1.80;;;20.90;99.90;;;;;;5050593;28;20450;-75
2022/09/20 12:02:08;;;;;;;8.27;1.50;;;21.30;99.90;;;;;;5047900;28;20471;-75
2022/09/20 12:04:36;;;;;;;7.87;1.77;;;21.10;99.90;;;;;;5049287;28;20488;-75
2022/09/20 12:07:07;;;;;;;10.23;2.03;;;21.10;99.90;;;;;;5048201;28;20457;-76
2022/09/20 12:09:36;;;;;;;2.10;1.37;;;20.90;99.90;;;;;;5047610;28;20445;-75
2022/09/20 12:12:17;;;;;;;2.50;1.57;;;20.60;99.90;;;;;;5049111;28;20416;-75
2022/09/20 12:14:54;;;;;;;1.87;1.50;;;20.10;99.90;;;;;;5049746;28;20534;-75
2022/09/20 12:17:56;;;;;;;3.67;1.93;;;19.70;99.90;;;;;;5049645;28;20424;-76
2022/09/20 12:21:00;;;;;;;5.60;2.13;;;19.30;99.90;;;;;;5046859;28;20465;-76
2022/09/20 12:24:01;;;;;;;4.10;1.80;;;18.90;99.90;;;;;;5050366;28;21203;-76
2022/09/20 12:26:42;;;;;;;5.50;2.30;;;18.40;99.90;;;;;;5046983;28;20935;-75
2022/09/20 12:29:51;;;;;;;6.20;2.10;;;18.20;99.90;;;;;;5049111;28;20920;-76
2022/09/20 12:32:40;;;;;;;4.63;2.13;;;18.80;99.90;;;;;;5047336;28;20482;-76
2022/09/20 12:35:54;;;;;;;5.13;1.77;;;19.40;99.90;;;;;;5051235;28;20517;-76
2022/09/20 12:38:37;;;;;;;9.73;2.70;;;19.10;99.90;;;;;;5051926;28;20420;-76
2022/09/20 12:41:08;;;;;;;2.27;1.97;;;18.90;99.90;;;;;;5052803;28;20428;-76
2022/09/20 12:43:38;;;;;;;5.50;2.10;;;19.30;99.90;;;;;;5052438;28;20574;-76
2022/09/20 12:46:05;;;;;;;4.53;2.10;;;19.70;99.90;;;;;;5052722;28;20465;-76
2022/09/20 12:48:37;;;;;;;4.33;2.23;;;19.40;99.90;;;;;;5038750;28;20508;-76
2022/09/20 12:54:05;;;;;;;5.37;1.60;;;18.90;99.90;;;;;;5033424;28;20424;-76
2022/09/20 12:56:35;;;;;;;4.47;1.73;;;19.80;99.90;;;;;;5033582;28;20512;-76
2022/09/20 12:59:04;;;;;;;4.70;1.70;;;20.60;99.90;;;;;;5033473;28;20435;-76
2022/09/20 13:01:38;;;;;;;3.40;1.50;;;20.90;99.90;;;;;;5033812;28;20511;-76
2022/09/20 13:04:54;;;;;;;8.37;2.30;;;21.00;99.90;;;;;;5033957;28;20529;-76
2022/09/20 13:07:36;;;;;;;7.00;2.30;;;20.40;99.90;;;;;;5033490;28;20456;-76
2022/09/20 13:10:17;;;;;;;5.23;1.80;;;20.00;99.90;;;;;;5034762;28;20442;-76
2022/09/20 13:12:46;;;;;;;6.40;2.33;;;20.20;99.90;;;;;;5049264;28;20432;-76
2022/09/20 13:15:18;;;;;;;2.60;1.70;;;20.80;99.90;;;;;;5034393;28;20549;-76
2022/09/20 13:17:49;;;;;;;4.87;1.87;;;21.50;99.90;;;;;;5032715;28;20477;-76
2022/09/20 13:20:20;;;;;;;5.80;2.00;;;21.90;99.90;;;;;;5033368;28;20454;-76
2022/09/20 13:22:50;;;;;;;6.30;2.13;;;22.50;99.90;;;;;;5033055;28;20486;-76
2022/09/20 13:25:20;;;;;;;3.23;1.87;;;22.90;99.90;;;;;;5032789;28;20446;-76
2022/09/20 13:27:49;;;;;;;3.00;1.70;;;23.10;99.90;;;;;;5033111;28;20458;-76
2022/09/20 13:30:19;;;;;;;3.10;1.37;;;23.00;99.90;;;;;;5032389;28;20477;-76
2022/09/20 13:32:46;;;;;;;3.97;1.80;;;22.90;99.90;;;;;;5032889;28;20442;-76
2022/09/20 13:35:17;;;;;;;4.10;1.63;;;22.90;99.30;;;;;;5033035;28;20477;-76
2022/09/20 13:37:53;;;;;;;5.10;2.23;;;22.90;99.90;;;;;;5032840;28;20544;-76
2022/09/20 13:40:21;;;;;;;4.37;2.17;;;22.50;99.90;;;;;;5032821;28;20456;-76
2022/09/20 13:42:50;;;;;;;5.40;1.93;;;21.90;99.90;;;;;;5044236;28;20484;-76
2022/09/20 13:45:19;;;;;;;3.50;2.00;;;21.40;99.90;;;;;;5047570;28;20469;-75
2022/09/20 13:47:49;;;;;;;6.57;2.23;;;21.00;99.90;;;;;;5039945;28;20565;-76